»·PEaware :: N741SG KAJO-KVCV

N741SG :: KAJO-KVCV

FLIGHT INFORMATION

Flight Status: Arrived
Operator: Privately registered:
United States
More flights under this callsign
Pilot: Carl R. (23234)
Aircraft: BEECH AIRCRAFT BARON
(BE58)
More flights by this aircraft type
Origin: KAJO Corona Mun
United States
Destination: KVCV Socal Logistics
United States
More flights between these airports :: More routes between these airports
Route: PDZ V442 APLES
File this flight plan on PilotEdge
Remarks: I-11
Altitude:
(Current/Filed)
9,000ft
Speed:
(Current/Filed)
170kts
Departed: 07-Feb-19 08:44 AM
Arrived: 07-Feb-19 09:33 AM
Distance/Time
Traveled:
43nm/0:49
Distance/Time
To Go:
Arrived

Flight Plot

Page will automatically refresh every two minutes.


Map Options




Map Legend


Flown Route
Filed Route
Departure Airport
Arrival Airport
Navaid (VOR, NDB)
Fix

Horizontal Profiles

Position Reports

Time Latitude Longitude Heading Altitude Ground
Speed
07-Feb-19 08:33 33.896886 -117.606262 268 537ft 0kts
07-Feb-19 08:34 33.896886 -117.606262 268 537ft 0kts
07-Feb-19 08:35 33.896886 -117.606262 268 537ft 0kts
07-Feb-19 08:36 33.896886 -117.606262 268 537ft 0kts
07-Feb-19 08:37 33.896906 -117.606369 301 537ft 4kts
07-Feb-19 08:38 33.897204 -117.607540 286 537ft 0kts
07-Feb-19 08:39 33.897204 -117.607540 286 537ft 0kts
07-Feb-19 08:40 33.897204 -117.607540 286 537ft 0kts
07-Feb-19 08:41 33.897204 -117.607540 286 537ft 0kts
07-Feb-19 08:42 33.897204 -117.607540 286 537ft 0kts
07-Feb-19 08:43 33.897755 -117.597316 88 715ft 95kts
07-Feb-19 08:44 33.908850 -117.560088 68 1982ft 132kts
07-Feb-19 08:45 33.927762 -117.523784 41 3438ft 131kts
07-Feb-19 08:46 33.954730 -117.494856 41 4787ft 129kts
07-Feb-19 08:47 33.979472 -117.502241 257 5981ft 128kts
07-Feb-19 08:48 33.948534 -117.512710 176 7096ft 127kts
07-Feb-19 08:49 33.918970 -117.529226 224 8119ft 126kts
07-Feb-19 08:50 33.929413 -117.554182 25 8984ft 128kts
07-Feb-19 08:51 33.961627 -117.522037 40 8986ft 164kts
07-Feb-19 08:52 33.961441 -117.481498 175 8982ft 168kts
07-Feb-19 08:53 33.927955 -117.518891 222 8981ft 171kts
07-Feb-19 08:54 33.930724 -117.559130 1 8998ft 169kts
07-Feb-19 08:55 33.961073 -117.517797 57 8982ft 172kts
07-Feb-19 08:56 33.996940 -117.481106 24 8982ft 172kts
07-Feb-19 08:57 34.040048 -117.455074 26 8981ft 173kts
07-Feb-19 08:58 34.083119 -117.429288 25 8990ft 172kts
07-Feb-19 08:59 34.126447 -117.403368 25 8990ft 173kts
07-Feb-19 09:00 34.169701 -117.377471 25 8990ft 173kts
07-Feb-19 09:01 34.213007 -117.351523 25 8990ft 173kts
07-Feb-19 09:02 34.256276 -117.325568 26 8990ft 173kts
07-Feb-19 09:03 34.299438 -117.299647 26 8990ft 173kts
07-Feb-19 09:04 34.342916 -117.273506 26 8964ft 174kts
07-Feb-19 09:05 34.387072 -117.246925 26 8770ft 180kts
07-Feb-19 09:06 34.431690 -117.220058 26 8751ft 174kts
07-Feb-19 09:07 34.475182 -117.193809 26 8752ft 173kts
07-Feb-19 09:08 34.518732 -117.167805 25 8752ft 173kts
07-Feb-19 09:10 34.561558 -117.148173 13 8426ft 154kts
07-Feb-19 09:11 34.603453 -117.145896 354 7712ft 151kts
07-Feb-19 09:12 34.644437 -117.156876 344 7013ft 150kts
07-Feb-19 09:13 34.684497 -117.171422 339 6347ft 150kts
07-Feb-19 09:14 34.720880 -117.199229 316 6337ft 159kts
07-Feb-19 09:15 34.751604 -117.238786 308 6335ft 161kts
07-Feb-19 09:16 34.776193 -117.284882 299 6317ft 160kts
07-Feb-19 09:17 34.791735 -117.332432 282 5752ft 149kts
07-Feb-19 09:18 34.773335 -117.373091 198 4782ft 156kts
07-Feb-19 09:19 34.729612 -117.380076 185 4077ft 164kts
07-Feb-19 09:20 34.685133 -117.384097 183 3882ft 147kts
07-Feb-19 09:21 34.648099 -117.386647 182 3144ft 120kts
07-Feb-19 09:22 34.611819 -117.388926 183 3444ft 148kts
07-Feb-19 09:23 34.591131 -117.418575 306 4169ft 150kts
07-Feb-19 09:24 34.607245 -117.463716 283 5213ft 147kts
07-Feb-19 09:25 34.616779 -117.514384 282 5748ft 171kts
07-Feb-19 09:25 34.634427 -117.556419 350 5761ft 180kts
07-Feb-19 09:27 34.690869 -117.542032 46 5728ft 180kts
07-Feb-19 09:28 34.671845 -117.499544 132 5293ft 151kts
07-Feb-19 09:29 34.648073 -117.453804 113 4504ft 154kts
07-Feb-19 09:29 34.641572 -117.416623 99 3774ft 128kts
07-Feb-19 09:30 34.626515 -117.387682 158 3078ft 94kts
07-Feb-19 09:32 34.605124 -117.386619 179 2888ft 53kts
07-Feb-19 09:33 34.594890 -117.385293 94 2888ft 1kts
07-Feb-19 09:33 34.594354 -117.383378 134 2888ft 15kts
07-Feb-19 09:34 34.590351 -117.378448 132 2888ft 19kts
07-Feb-19 09:35 34.589960 -117.374975 113 2888ft 14kts
07-Feb-19 09:36 34.589364 -117.373526 44 2888ft 0kts
07-Feb-19 09:37 34.589364 -117.373526 44 2888ft 0kts

Navigation Log

Ident Type
Flight plan parsing failed, navigation log unavailable